Winston Salem, NC

12:03 PM EST on January 31, 2015 (GMT -0500)
5 Points | Change Station
CLOSE
Current Station
Personal Weather Station
Location: Winston-Salem, NC
Elevation: 909 ft
Nearby Weather Stations

Elev 909 ft 36.07 °N, 80.16 °W | Updated 3 minutes ago

Clear
Clear
42.4 °F
Feels Like 40 °F
N
4.2
Wind Variable Wind from West

Today
High -- | Low -- °F
--% Chance of Precip.
Yesterday
High -- | Low -- °F
Precip. -- in
7:22 AM 5:46 PM
Waxing Gibbous, 90% visible
Pressure 30.37 in
Visibility 10.0 miles
Clouds Clear
Windchill 40 °F
Dew Point 12 °F
Humidity 29%
Rainfall 0.00 in
Snow Depth Not available.
UV 4 out of 12
Pollen 3.00 out of 12
Air Quality Not available.
Flu Activity Not available.
METAR KINT 311654Z 29005KT 10SM CLR 04/M18 A3035 RMK AO2 SLP284 T00441178

More Conditions Fewer Conditions

Pressure 30.37 in
Visibility 10.0 miles
Clouds Clear
Windchill 40 °F
Dew Point 12 °F
Humidity 29%
Rainfall 0.00 in
Snow Depth Not available.
UV 4 out of 12
Pollen 3.00 out of 12
Air Quality Not available.
Flu Activity Not available.
METAR KINT 311654Z 29005KT 10SM CLR 04/M18 A3035 RMK AO2 SLP284 T00441178

More Conditions Fewer Conditions

10-Day Weather Forecast

Almanac

Astronomy

Jan. 31, 2015 Rise Set
Actual Time
Civil Twilight
Nautical Twilight
Astronomical Twilight
Moon
Length of Visible Light
Length of Day
Tomorrow will be .
, % of the Moon is Illuminated

Today's Extremes

State Highs State Lows

Community

WunderPhotos

Upload Photos

1,792,117 photos uploaded!

WunderBlogs® & News

Nearby

Air Quality

  Air Quality AQ Index Pollutant
Not available.

Snow Depth

Station Depth Elevation

Earthquake Activity

City Distance Mag. Time & Date
Minimum magnitude displayed is 2.5.

Coastal Water Temperatures

Place Temperature

Nearby Weather Stations